createdAt,value
2023-03-07T00:01:33.148Z,100316.41
2023-03-07T00:04:01.697Z,100320.03
2023-03-07T00:06:32.981Z,100315.25
2023-03-07T00:09:02.588Z,100317.19
2023-03-07T00:11:33.934Z,100320.69
2023-03-07T00:14:20.688Z,100316.22
2023-03-07T00:16:52.534Z,100312.09
2023-03-07T00:19:24.069Z,100321.59
2023-03-07T00:21:52.587Z,100315.38
2023-03-07T00:24:24.947Z,100316.41
2023-03-07T00:26:53.779Z,100305.94
2023-03-07T00:29:22.926Z,100309.22
2023-03-07T00:32:22.877Z,100317.84
2023-03-07T00:34:57.936Z,100312.91
2023-03-07T00:37:31.131Z,100312.09
2023-03-07T00:40:01.054Z,100309.41
2023-03-07T00:42:33.111Z,100316.22
2023-03-07T00:45:02.017Z,100313.59
2023-03-07T00:47:32.960Z,100310.91
2023-03-07T00:50:03.259Z,100312.69
2023-03-07T00:52:39.241Z,100315.38
2023-03-07T00:55:14.604Z,100303.81
2023-03-07T00:57:52.168Z,100313.91
2023-03-07T01:00:33.949Z,100314.63
2023-03-07T01:03:24.697Z,100310.31
2023-03-07T01:12:15.802Z,100304.72
2023-03-07T01:15:18.380Z,100305.34
2023-03-07T01:17:51.055Z,100299.34
2023-03-07T01:20:28.241Z,100304.59
2023-03-07T01:23:03.408Z,100302.81
2023-03-07T01:26:25.927Z,100298.72
2023-03-07T01:29:34.601Z,100298.47
2023-03-07T01:32:15.223Z,100299.31
2023-03-07T01:34:54.240Z,100294.75
2023-03-07T01:37:31.920Z,100299.03
2023-03-07T01:40:41.793Z,100286.69
2023-03-07T01:48:14.541Z,100285.22
2023-03-07T01:50:47.313Z,100305.44
2023-03-07T01:53:16.660Z,100298.47
2023-03-07T01:55:47.954Z,100294.16
2023-03-07T01:58:41.627Z,100296.88
2023-03-07T02:01:33.827Z,100296.06
2023-03-07T02:04:59.125Z,100288.13
2023-03-07T02:08:23.635Z,100280.47
2023-03-07T02:20:12.649Z,100299.09
2023-03-07T02:24:50.509Z,100293.03
2023-03-07T02:28:23.596Z,100288.91
2023-03-07T02:31:07.998Z,100294.97
2023-03-07T02:33:40.034Z,100296.09
2023-03-07T02:36:29.046Z,100293.38
2023-03-07T02:42:34.069Z,100294.09
2023-03-07T02:45:40.763Z,100298.31
2023-03-07T02:48:15.396Z,100286.06
2023-03-07T02:50:51.484Z,100293.19
2023-03-07T02:53:20.155Z,100288.31
2023-03-07T02:55:52.233Z,100286.72
2023-03-07T02:58:29.700Z,100295.72
2023-03-07T03:01:00.438Z,100283.53
2023-03-07T03:03:45.968Z,100286.94
2023-03-07T03:10:20.984Z,100285.13
2023-03-07T03:13:13.072Z,100281.63
2023-03-07T03:15:44.017Z,100286.69
2023-03-07T03:18:18.522Z,100284.06
2023-03-07T03:20:49.503Z,100284.81
2023-03-07T03:23:18.814Z,100282.75
2023-03-07T03:32:41.493Z,100278.44
2023-03-07T03:35:15.145Z,100272.47
2023-03-07T03:38:26.480Z,100269.13
2023-03-07T03:41:05.923Z,100271.13
2023-03-07T03:43:38.358Z,100270.38
2023-03-07T03:46:07.298Z,100276.41
2023-03-07T03:48:38.345Z,100284.56
2023-03-07T03:51:12.534Z,100274.69
2023-03-07T03:53:42.808Z,100282.50
2023-03-07T03:56:30.213Z,100278.03
2023-03-07T03:58:58.655Z,100275.88
2023-03-07T04:01:30.988Z,100280.47
2023-03-07T04:03:59.617Z,100274.94
2023-03-07T04:06:30.714Z,100286.06
2023-03-07T04:09:05.149Z,100279.16
2023-03-07T04:11:35.061Z,100278.28
2023-03-07T04:14:04.853Z,100275.38
2023-03-07T04:16:35.938Z,100277.94
2023-03-07T04:19:07.403Z,100277.19
2023-03-07T04:21:36.887Z,100278.72
2023-03-07T04:24:09.242Z,100289.97
2023-03-07T04:26:37.970Z,100280.75
2023-03-07T04:29:06.513Z,100284.72
2023-03-07T04:31:43.662Z,100293.94
2023-03-07T04:34:12.809Z,100284.47
2023-03-07T04:36:43.449Z,100290.97
2023-03-07T04:39:13.964Z,100289.63
2023-03-07T04:41:44.118Z,100288.03
2023-03-07T04:44:21.441Z,100293.03
2023-03-07T04:46:49.350Z,100292.19
2023-03-07T04:49:18.128Z,100293.09
2023-03-07T04:51:49.542Z,100295.41
2023-03-07T04:54:25.101Z,100291.88
2023-03-07T04:56:54.216Z,100288.09
2023-03-07T04:59:28.899Z,100292.16
2023-03-07T05:01:59.863Z,100288.25
2023-03-07T05:04:28.789Z,100291.16
2023-03-07T05:06:57.160Z,100293.53
2023-03-07T05:09:25.291Z,100295.41
2023-03-07T05:11:54.215Z,100296.38
2023-03-07T05:14:23.303Z,100297.06
2023-03-07T05:16:53.115Z,100300.63
2023-03-07T05:19:22.934Z,100297.97
2023-03-07T05:22:12.072Z,100292.91
2023-03-07T05:24:41.086Z,100299.31
2023-03-07T05:27:11.179Z,100296.81
2023-03-07T05:29:39.196Z,100299.50
2023-03-07T05:32:08.693Z,100291.72
2023-03-07T05:34:47.500Z,100293.53
2023-03-07T05:37:23.765Z,100290.97
2023-03-07T05:39:52.146Z,100296.28
2023-03-07T05:42:20.601Z,100298.66
2023-03-07T05:44:50.614Z,100293.31
2023-03-07T05:47:33.550Z,100296.25
2023-03-07T05:50:16.367Z,100295.34
2023-03-07T05:56:06.890Z,100299.78
2023-03-07T05:58:45.778Z,100299.22
2023-03-07T06:01:27.808Z,100304.44
2023-03-07T06:03:58.926Z,100300.81
2023-03-07T06:06:30.408Z,100307.44
2023-03-07T06:09:10.205Z,100301.31
2023-03-07T06:11:45.562Z,100293.41
2023-03-07T06:14:14.128Z,100298.75
2023-03-07T06:16:50.530Z,100297.94
2023-03-07T06:19:22.464Z,100293.78
2023-03-07T06:21:56.749Z,100297.25
2023-03-07T06:24:35.824Z,100292.47
2023-03-07T06:27:11.443Z,100290.38
2023-03-07T06:29:44.378Z,100284.56
2023-03-07T06:32:36.712Z,100285.81
2023-03-07T06:35:20.425Z,100276.75
2023-03-07T06:37:56.531Z,100280.00
2023-03-07T06:40:51.723Z,100271.53
2023-03-07T06:43:24.054Z,100273.75
2023-03-07T06:45:57.511Z,100271.31
2023-03-07T06:48:42.974Z,100271.13
2023-03-07T06:51:22.409Z,100258.06
2023-03-07T06:54:04.088Z,100259.69
2023-03-07T06:56:36.094Z,100259.13
2023-03-07T06:59:09.317Z,100256.13
2023-03-07T07:01:41.537Z,100251.16
2023-03-07T07:04:11.941Z,100258.56
2023-03-07T07:06:45.393Z,100255.88
2023-03-07T07:09:14.355Z,100257.38
2023-03-07T07:11:42.546Z,100265.84
2023-03-07T07:14:13.951Z,100263.75
2023-03-07T07:16:44.436Z,100260.34
2023-03-07T07:19:13.050Z,100256.38
2023-03-07T07:21:45.724Z,100251.97
2023-03-07T07:24:16.931Z,100252.31
2023-03-07T07:26:44.951Z,100235.16
2023-03-07T07:29:13.028Z,100241.34
2023-03-07T07:31:41.384Z,100244.81
2023-03-07T07:34:09.562Z,100240.38
2023-03-07T07:36:38.248Z,100241.78
2023-03-07T07:39:09.293Z,100251.53
2023-03-07T07:41:39.510Z,100239.56
2023-03-07T07:44:07.561Z,100248.44
2023-03-07T07:46:43.876Z,100238.66
2023-03-07T07:49:13.324Z,100225.22
2023-03-07T07:51:41.633Z,100229.38
2023-03-07T07:54:09.778Z,100239.97
2023-03-07T07:56:38.690Z,100249.75
2023-03-07T07:59:06.732Z,100242.44
2023-03-07T08:01:38.308Z,100237.81
2023-03-07T08:04:11.754Z,100236.72
2023-03-07T08:06:44.634Z,100233.09
2023-03-07T08:09:15.977Z,100232.25
2023-03-07T08:11:48.566Z,100227.22
2023-03-07T08:14:17.345Z,100225.44
2023-03-07T08:16:45.322Z,100235.25
2023-03-07T08:19:13.274Z,100224.25
2023-03-07T08:21:41.257Z,100236.97
2023-03-07T08:24:14.801Z,100240.44
2023-03-07T08:26:48.813Z,100233.69
2023-03-07T08:29:16.890Z,100232.66
2023-03-07T08:31:51.499Z,100235.41
2023-03-07T08:34:19.704Z,100237.16
2023-03-07T08:36:47.832Z,100227.84
2023-03-07T08:39:20.077Z,100227.84
2023-03-07T08:41:48.048Z,100214.72
2023-03-07T08:44:15.954Z,100210.78
2023-03-07T08:46:43.780Z,100212.63
2023-03-07T08:49:12.119Z,100217.94
2023-03-07T08:51:43.159Z,100215.84
2023-03-07T08:54:11.186Z,100207.16
2023-03-07T08:56:39.291Z,100205.22
2023-03-07T08:59:07.053Z,100203.81
2023-03-07T09:01:34.989Z,100206.13
2023-03-07T09:04:03.276Z,100206.38
2023-03-07T09:06:34.181Z,100202.78
2023-03-07T09:09:08.758Z,100209.81
2023-03-07T09:11:38.747Z,100199.59
2023-03-07T09:14:09.324Z,100208.69
2023-03-07T09:16:37.487Z,100203.50
2023-03-07T09:19:05.899Z,100202.84
2023-03-07T09:21:33.973Z,100205.56
2023-03-07T09:24:02.259Z,100208.53
2023-03-07T09:26:33.343Z,100192.78
2023-03-07T09:29:01.315Z,100199.16
2023-03-07T09:31:30.122Z,100195.84
2023-03-07T09:34:01.874Z,100178.50
2023-03-07T09:36:29.651Z,100175.06
2023-03-07T09:39:01.079Z,100167.66
2023-03-07T09:42:06.472Z,100174.94
2023-03-07T09:44:40.672Z,100170.38
2023-03-07T09:47:39.534Z,100163.59
2023-03-07T09:50:23.024Z,100161.22
2023-03-07T09:52:57.010Z,100157.66
2023-03-07T09:55:26.599Z,100158.50
2023-03-07T09:57:58.883Z,100156.69
2023-03-07T10:00:34.014Z,100154.09
2023-03-07T10:03:25.101Z,100154.19
2023-03-07T10:05:59.452Z,100132.44
2023-03-07T10:08:34.023Z,100132.97
2023-03-07T10:11:23.585Z,100125.50
2023-03-07T10:14:13.648Z,100115.63
2023-03-07T10:17:03.430Z,100113.13
2023-03-07T10:19:34.538Z,100106.53
2023-03-07T10:22:30.160Z,100102.53
2023-03-07T10:25:17.308Z,100095.66
2023-03-07T10:27:48.165Z,100087.84
2023-03-07T10:30:19.755Z,100084.72
2023-03-07T10:33:01.325Z,100080.44
2023-03-07T10:35:44.186Z,100081.28
2023-03-07T10:39:01.880Z,100077.13
2023-03-07T10:41:30.391Z,100070.00
2023-03-07T10:43:58.400Z,100076.53
2023-03-07T10:46:30.998Z,100062.91
2023-03-07T10:49:10.723Z,100063.06
2023-03-07T10:51:52.046Z,100056.66
2023-03-07T10:54:30.079Z,100049.03
2023-03-07T10:57:11.438Z,100039.22
2023-03-07T10:59:47.560Z,100054.34
2023-03-07T11:02:36.843Z,100043.25
2023-03-07T11:05:33.528Z,100033.50
2023-03-07T11:08:28.577Z,100030.03
2023-03-07T11:10:58.787Z,100022.69
2023-03-07T11:13:29.106Z,100015.50
2023-03-07T11:16:19.565Z,100018.25
2023-03-07T11:18:48.223Z,100023.03
2023-03-07T11:21:36.104Z,100019.91
2023-03-07T11:24:25.229Z,99998.91
2023-03-07T11:26:55.537Z,100002.97
2023-03-07T11:29:24.988Z,99987.91
2023-03-07T11:32:14.221Z,100007.41
2023-03-07T11:34:53.742Z,100006.72
2023-03-07T11:37:44.898Z,100007.22
2023-03-07T11:40:45.179Z,99999.69
2023-03-07T11:43:37.569Z,100003.47
2023-03-07T11:46:12.255Z,100013.09
2023-03-07T11:49:02.149Z,100024.59
2023-03-07T11:52:01.430Z,100007.81
2023-03-07T11:54:51.099Z,100008.19
2023-03-07T11:57:27.411Z,100017.41
2023-03-07T12:00:16.508Z,100003.09
2023-03-07T12:03:03.189Z,100006.88
2023-03-07T12:06:00.572Z,100003.66
2023-03-07T12:08:37.208Z,100004.78
2023-03-07T12:11:16.806Z,99997.94
2023-03-07T12:13:54.778Z,99994.50
2023-03-07T12:16:45.210Z,99988.47
2023-03-07T12:19:15.415Z,99995.56
2023-03-07T12:21:52.040Z,99994.50
2023-03-07T12:24:25.497Z,99983.28
2023-03-07T12:27:02.748Z,99994.22
2023-03-07T12:30:07.294Z,99986.31
2023-03-07T12:32:36.501Z,99974.78
2023-03-07T12:35:24.883Z,99967.53
2023-03-07T12:38:08.290Z,99970.81
2023-03-07T12:40:42.480Z,99984.41
2023-03-07T12:43:33.518Z,99972.53
2023-03-07T12:46:16.729Z,99974.69
2023-03-07T12:49:08.284Z,99970.47
2023-03-07T12:51:43.571Z,99961.81
2023-03-07T12:54:25.466Z,99961.22
2023-03-07T12:57:18.949Z,99954.63
2023-03-07T12:59:46.839Z,99951.63
2023-03-07T13:02:21.484Z,99948.13
2023-03-07T13:04:49.503Z,99956.06
2023-03-07T13:07:28.269Z,99973.03
2023-03-07T13:09:58.884Z,99954.06
2023-03-07T13:12:37.711Z,99951.25
2023-03-07T13:15:17.584Z,99950.88
2023-03-07T13:17:47.835Z,99947.84
2023-03-07T13:20:15.737Z,99944.44
2023-03-07T13:22:47.399Z,99942.97
2023-03-07T13:25:21.153Z,99938.13
2023-03-07T13:27:51.753Z,99940.38
2023-03-07T13:30:30.252Z,99936.22
2023-03-07T13:33:01.959Z,99944.22
2023-03-07T13:35:33.582Z,99934.38
2023-03-07T13:38:22.792Z,99937.75
2023-03-07T13:41:03.293Z,99928.53
2023-03-07T13:43:31.147Z,99920.94
2023-03-07T13:46:00.906Z,99927.06
2023-03-07T13:48:29.272Z,99923.16
2023-03-07T13:51:00.242Z,99920.50
2023-03-07T13:53:28.561Z,99921.19
2023-03-07T13:56:15.428Z,99913.03
2023-03-07T13:59:28.326Z,99908.56
2023-03-07T14:02:04.335Z,99902.88
2023-03-07T14:04:50.081Z,99903.06
2023-03-07T14:07:28.102Z,99904.69
2023-03-07T14:10:21.442Z,99902.03
2023-03-07T14:13:22.844Z,99904.56
2023-03-07T14:15:57.118Z,99903.91
2023-03-07T14:18:24.750Z,99893.44
2023-03-07T14:21:09.623Z,99898.00
2023-03-07T14:23:55.801Z,99901.72
2023-03-07T14:26:26.354Z,99902.91
2023-03-07T14:29:01.864Z,99902.13
2023-03-07T14:31:37.474Z,99893.06
2023-03-07T14:34:29.827Z,99896.56
2023-03-07T14:37:19.138Z,99902.13
2023-03-07T14:40:09.202Z,99892.50
2023-03-07T14:42:51.159Z,99894.31
2023-03-07T14:45:43.264Z,99895.66
2023-03-07T14:48:15.565Z,99894.06
2023-03-07T14:50:44.896Z,99887.00
2023-03-07T14:53:20.811Z,99893.41
2023-03-07T14:55:51.768Z,99895.41
2023-03-07T14:58:23.316Z,99899.91
2023-03-07T15:01:02.731Z,99896.75
2023-03-07T15:03:31.590Z,99892.50
2023-03-07T15:06:01.327Z,99896.09
2023-03-07T15:08:38.705Z,99892.22
2023-03-07T15:11:23.919Z,99891.25
2023-03-07T15:13:55.138Z,99897.66
2023-03-07T15:16:39.958Z,99903.91
2023-03-07T15:19:22.745Z,99903.16
2023-03-07T15:21:58.157Z,99909.38
2023-03-07T15:24:25.666Z,99904.22
2023-03-07T15:26:55.692Z,99906.75
2023-03-07T15:29:25.851Z,99914.22
2023-03-07T15:32:03.988Z,99913.38
2023-03-07T15:34:34.823Z,99908.25
2023-03-07T15:37:24.118Z,99894.31
2023-03-07T15:40:35.242Z,99897.91
2023-03-07T15:43:04.531Z,99903.28
2023-03-07T15:45:36.106Z,99903.94
2023-03-07T15:48:35.834Z,99907.63
2023-03-07T15:51:06.492Z,99910.25
2023-03-07T15:53:40.807Z,99909.59
2023-03-07T15:56:26.406Z,99905.09
2023-03-07T15:59:01.343Z,99909.53
2023-03-07T16:01:33.748Z,99915.66
2023-03-07T16:04:04.137Z,99916.47
2023-03-07T16:06:42.440Z,99915.66
2023-03-07T16:09:14.187Z,99918.44
2023-03-07T16:11:44.060Z,99914.97
2023-03-07T16:14:26.173Z,99912.59
2023-03-07T16:17:00.144Z,99906.59
2023-03-07T16:19:28.043Z,99913.44
2023-03-07T16:21:56.326Z,99917.88
2023-03-07T16:24:24.331Z,99918.66
2023-03-07T16:26:52.054Z,99929.13
2023-03-07T16:29:22.611Z,99936.22
2023-03-07T16:31:50.803Z,99944.66
2023-03-07T16:34:21.476Z,99939.25
2023-03-07T16:36:49.392Z,99938.03
2023-03-07T16:39:18.547Z,99935.81
2023-03-07T16:41:48.277Z,99936.84
2023-03-07T16:44:23.706Z,99941.50
2023-03-07T16:47:15.816Z,99942.19
2023-03-07T16:49:44.487Z,99960.56
2023-03-07T16:52:13.985Z,99948.66
2023-03-07T16:54:42.002Z,99951.66
2023-03-07T16:57:17.300Z,99951.72
2023-03-07T16:59:48.406Z,99954.44
2023-03-07T17:02:19.196Z,99946.94
2023-03-07T17:04:47.334Z,99946.94
2023-03-07T17:07:19.084Z,99948.44
2023-03-07T17:09:47.140Z,99956.81
2023-03-07T17:12:16.520Z,99954.44
2023-03-07T17:14:46.848Z,99965.97
2023-03-07T17:17:21.007Z,99962.41
2023-03-07T17:19:49.284Z,99972.09
2023-03-07T17:22:20.373Z,99971.00
2023-03-07T17:24:48.091Z,99984.47
2023-03-07T17:27:20.592Z,99986.00
2023-03-07T17:29:52.888Z,99981.50
2023-03-07T17:32:20.863Z,99992.84
2023-03-07T17:34:49.553Z,99997.28
2023-03-07T17:37:17.934Z,100004.59
2023-03-07T17:39:46.065Z,100002.41
2023-03-07T17:42:20.343Z,100019.34
2023-03-07T17:44:48.305Z,100016.88
2023-03-07T17:47:17.677Z,100018.06
2023-03-07T17:49:46.891Z,100026.03
2023-03-07T17:52:15.018Z,100026.72
2023-03-07T17:54:45.929Z,100029.34
2023-03-07T17:57:14.057Z,100031.97
2023-03-07T17:59:42.797Z,100032.91
2023-03-07T18:02:13.636Z,100032.81
2023-03-07T18:04:41.754Z,100042.34
2023-03-07T18:07:09.569Z,100034.41
2023-03-07T18:09:41.269Z,100024.19
2023-03-07T18:12:09.493Z,100031.28
2023-03-07T18:14:38.946Z,100036.00
2023-03-07T18:17:06.682Z,100028.09
2023-03-07T18:19:34.436Z,100030.16
2023-03-07T18:22:02.336Z,100034.88
2023-03-07T18:24:30.375Z,100037.72
2023-03-07T18:26:59.635Z,100038.84
2023-03-07T18:29:29.016Z,100044.03
2023-03-07T18:31:56.690Z,100051.03
2023-03-07T18:34:25.605Z,100050.63
2023-03-07T18:36:54.440Z,100053.13
2023-03-07T18:39:23.395Z,100058.09
2023-03-07T18:41:51.572Z,100058.63
2023-03-07T18:44:19.806Z,100043.00
2023-03-07T18:46:49.655Z,100037.66
2023-03-07T18:49:17.956Z,100046.53
2023-03-07T18:51:46.242Z,100047.47
2023-03-07T18:54:15.354Z,100041.97
2023-03-07T18:56:47.404Z,100045.63
2023-03-07T18:59:17.364Z,100053.22
2023-03-07T19:01:50.334Z,100053.38
2023-03-07T19:04:18.484Z,100043.06
2023-03-07T19:06:47.643Z,100050.75
2023-03-07T19:09:17.493Z,100044.97
2023-03-07T19:11:47.677Z,100046.19
2023-03-07T19:14:16.923Z,100053.91
2023-03-07T19:16:45.166Z,100040.72
2023-03-07T19:19:13.753Z,100051.00
2023-03-07T19:21:41.562Z,100052.53
2023-03-07T19:24:11.474Z,100060.41
2023-03-07T19:26:41.710Z,100056.13
2023-03-07T19:29:12.192Z,100044.84
2023-03-07T19:31:43.912Z,100047.38
2023-03-07T19:34:11.828Z,100054.06
2023-03-07T19:36:41.705Z,100056.09
2023-03-07T19:39:20.474Z,100055.84
2023-03-07T19:41:48.404Z,100055.00
2023-03-07T19:44:16.704Z,100050.00
2023-03-07T19:46:47.337Z,100053.47
2023-03-07T19:49:19.669Z,100052.63
2023-03-07T19:51:47.497Z,100051.78
2023-03-07T19:54:15.780Z,100046.81
2023-03-07T19:56:45.760Z,100053.81
2023-03-07T19:59:13.841Z,100055.31
2023-03-07T20:01:43.105Z,100049.22
2023-03-07T20:04:16.112Z,100051.94
2023-03-07T20:06:45.080Z,100053.03
2023-03-07T20:09:13.486Z,100056.44
2023-03-07T20:11:43.409Z,100054.75
2023-03-07T20:14:16.128Z,100057.44
2023-03-07T20:16:45.643Z,100054.97
2023-03-07T20:19:14.385Z,100055.59
2023-03-07T20:21:49.824Z,100052.19
2023-03-07T20:24:18.886Z,100059.22
2023-03-07T20:26:48.034Z,100058.25
2023-03-07T20:29:16.471Z,100066.34
2023-03-07T20:31:44.563Z,100072.09
2023-03-07T20:34:13.070Z,100073.59
2023-03-07T20:36:43.694Z,100071.94
2023-03-07T20:39:14.696Z,100076.06
2023-03-07T20:41:43.662Z,100082.09
2023-03-07T20:44:13.564Z,100080.13
2023-03-07T20:46:41.643Z,100079.53
2023-03-07T20:49:13.199Z,100082.09
2023-03-07T20:51:42.441Z,100083.94
2023-03-07T20:54:15.698Z,100084.78
2023-03-07T20:56:45.165Z,100090.78
2023-03-07T20:59:19.277Z,100093.38
2023-03-07T21:01:47.969Z,100089.84
2023-03-07T21:04:18.641Z,100083.69
2023-03-07T21:06:50.431Z,100095.00
2023-03-07T21:09:19.075Z,100085.59
2023-03-07T21:11:50.126Z,100093.56
2023-03-07T21:14:20.494Z,100086.19
2023-03-07T21:16:52.183Z,100088.94
2023-03-07T21:19:21.177Z,100095.69
2023-03-07T21:21:49.003Z,100105.69
2023-03-07T21:24:26.612Z,100105.38
2023-03-07T21:26:54.609Z,100099.91
2023-03-07T21:29:22.416Z,100108.59
2023-03-07T21:31:52.396Z,100103.22
2023-03-07T21:34:20.621Z,100109.50
2023-03-07T21:36:56.188Z,100110.19
2023-03-07T21:39:25.897Z,100114.66
2023-03-07T21:41:54.362Z,100107.28
2023-03-07T21:44:25.257Z,100110.56
2023-03-07T21:46:53.081Z,100108.47
2023-03-07T21:49:21.798Z,100121.44
2023-03-07T21:51:49.768Z,100128.94
2023-03-07T21:54:17.615Z,100127.09
2023-03-07T21:56:45.377Z,100136.44
2023-03-07T21:59:13.665Z,100136.19
2023-03-07T22:01:42.425Z,100132.78
2023-03-07T22:04:10.736Z,100122.94
2023-03-07T22:06:38.685Z,100127.84
2023-03-07T22:09:12.098Z,100124.38
2023-03-07T22:11:40.293Z,100130.88
2023-03-07T22:14:09.865Z,100132.25
2023-03-07T22:16:40.906Z,100141.97
2023-03-07T22:19:08.946Z,100143.28
2023-03-07T22:21:38.169Z,100147.91
2023-03-07T22:24:11.472Z,100152.09
2023-03-07T22:26:39.848Z,100152.44
2023-03-07T22:29:07.567Z,100148.91
2023-03-07T22:31:39.496Z,100147.34
2023-03-07T22:34:08.536Z,100151.44
2023-03-07T22:36:36.949Z,100151.59
2023-03-07T22:39:07.418Z,100151.53
2023-03-07T22:41:41.072Z,100150.00
2023-03-07T22:44:09.539Z,100157.81
2023-03-07T22:46:37.834Z,100152.69
2023-03-07T22:49:05.696Z,100157.00
2023-03-07T22:51:35.673Z,100165.38
2023-03-07T22:54:05.085Z,100155.66
2023-03-07T22:56:34.003Z,100150.94
2023-03-07T22:59:05.768Z,100141.31
2023-03-07T23:01:34.238Z,100151.78
2023-03-07T23:04:02.537Z,100143.06
2023-03-07T23:06:37.013Z,100150.09
2023-03-07T23:09:07.357Z,100142.16
2023-03-07T23:11:38.032Z,100150.94
2023-03-07T23:14:07.905Z,100151.09
2023-03-07T23:16:49.835Z,100151.19
2023-03-07T23:19:21.496Z,100154.88
2023-03-07T23:21:50.081Z,100150.81
2023-03-07T23:24:19.737Z,100148.63
2023-03-07T23:26:48.939Z,100153.09
2023-03-07T23:29:17.018Z,100159.34
2023-03-07T23:31:45.802Z,100151.50
2023-03-07T23:34:36.542Z,100155.03
2023-03-07T23:37:05.700Z,100155.88
2023-03-07T23:40:01.302Z,100160.16
2023-03-07T23:42:47.548Z,100162.09
2023-03-07T23:45:16.542Z,100159.34
2023-03-07T23:47:46.627Z,100161.88
2023-03-07T23:50:21.305Z,100153.94
2023-03-07T23:52:50.360Z,100156.63
2023-03-07T23:55:18.914Z,100151.16
2023-03-07T23:57:48.742Z,100149.38
